Login to view products.
 
Monday, April 23, 2018 (22:45 UTC)
Al Bateen Executive Airport
ICAO: OMAD
IATA: AZI
  • METAR OMAD 232200Z 06002KT 8000 NSC 29/13 Q1007 BECMG 12006KT=
  • TAF OMAD 231700Z 2318/2500 06008KT 8000 NSC BECMG 2322/2400 16010KT PROB30 TEMPO 2402/2406 4000 DU BECMG 2410/2412 33008KT BECMG 2417/2419 06005KT=
D:\Input Parser\Destinations\Final\17\OMADL18001700928755040.txt